sensor_id;sensor_type;location;lat;lon;timestamp;temperature;humidity
20858;DHT22;10589;53.636;10.012;2022-08-30T03:46:14;15.30;99.90
20858;DHT22;10589;53.636;10.012;2022-08-30T03:48:40;15.30;99.90
20858;DHT22;10589;53.636;10.012;2022-08-30T03:51:06;15.30;99.90
20858;DHT22;10589;53.636;10.012;2022-08-30T03:53:32;15.30;99.90
20858;DHT22;10589;53.636;10.012;2022-08-30T03:55:57;15.20;99.90
20858;DHT22;10589;53.636;10.012;2022-08-30T03:58:23;15.20;99.90
20858;DHT22;10589;53.636;10.012;2022-08-30T04:00:49;15.20;99.90
20858;DHT22;10589;53.636;10.012;2022-08-30T04:03:15;15.20;99.90
20858;DHT22;10589;53.636;10.012;2022-08-30T04:05:42;15.20;99.90
20858;DHT22;10589;53.636;10.012;2022-08-30T04:08:09;15.20;99.90
20858;DHT22;10589;53.636;10.012;2022-08-30T04:10:35;15.20;99.90
20858;DHT22;10589;53.636;10.012;2022-08-30T04:13:01;15.20;99.90
20858;DHT22;10589;53.636;10.012;2022-08-30T04:15:27;15.20;99.90
20858;DHT22;10589;53.636;10.012;2022-08-30T04:17:52;15.20;99.90
20858;DHT22;10589;53.636;10.012;2022-08-30T04:20:20;15.20;99.90
20858;DHT22;10589;53.636;10.012;2022-08-30T04:22:45;15.10;99.90
20858;DHT22;10589;53.636;10.012;2022-08-30T04:25:12;15.10;99.90
20858;DHT22;10589;53.636;10.012;2022-08-30T04:27:37;15.10;99.90
20858;DHT22;10589;53.636;10.012;2022-08-30T04:30:04;15.10;99.90
20858;DHT22;10589;53.636;10.012;2022-08-30T04:32:29;15.10;99.90
20858;DHT22;10589;53.636;10.012;2022-08-30T04:34:58;15.10;99.90
20858;DHT22;10589;53.636;10.012;2022-08-30T04:37:24;15.10;99.90
20858;DHT22;10589;53.636;10.012;2022-08-30T04:39:53;15.10;99.90
20858;DHT22;10589;53.636;10.012;2022-08-30T04:42:19;15.10;99.90
20858;DHT22;10589;53.636;10.012;2022-08-30T04:44:45;15.00;99.90
20858;DHT22;10589;53.636;10.012;2022-08-30T04:47:10;15.00;99.90
20858;DHT22;10589;53.636;10.012;2022-08-30T04:49:36;15.00;99.90
20858;DHT22;10589;53.636;10.012;2022-08-30T04:52:02;15.10;99.90
20858;DHT22;10589;53.636;10.012;2022-08-30T04:54:27;15.10;99.90
20858;DHT22;10589;53.636;10.012;2022-08-30T04:56:53;15.10;99.90
20858;DHT22;10589;53.636;10.012;2022-08-30T04:59:19;15.10;99.90
20858;DHT22;10589;53.636;10.012;2022-08-30T05:01:46;15.10;99.90
20858;DHT22;10589;53.636;10.012;2022-08-30T05:04:13;15.10;99.90
20858;DHT22;10589;53.636;10.012;2022-08-30T05:06:39;15.10;99.90
20858;DHT22;10589;53.636;10.012;2022-08-30T05:09:04;15.10;99.90
20858;DHT22;10589;53.636;10.012;2022-08-30T05:11:30;15.10;99.90
20858;DHT22;10589;53.636;10.012;2022-08-30T05:13:56;15.10;99.90
20858;DHT22;10589;53.636;10.012;2022-08-30T05:16:21;15.20;99.90
20858;DHT22;10589;53.636;10.012;2022-08-30T05:18:48;15.20;99.90
20858;DHT22;10589;53.636;10.012;2022-08-30T05:21:23;15.20;99.90
20858;DHT22;10589;53.636;10.012;2022-08-30T05:23:51;15.30;99.90
20858;DHT22;10589;53.636;10.012;2022-08-30T05:26:23;15.30;99.90
20858;DHT22;10589;53.636;10.012;2022-08-30T05:28:49;15.30;99.90
20858;DHT22;10589;53.636;10.012;2022-08-30T05:31:24;15.30;99.90
20858;DHT22;10589;53.636;10.012;2022-08-30T05:33:51;15.40;99.90
20858;DHT22;10589;53.636;10.012;2022-08-30T05:36:18;15.40;99.90
20858;DHT22;10589;53.636;10.012;2022-08-30T05:38:44;15.40;99.90
20858;DHT22;10589;53.636;10.012;2022-08-30T05:41:10;15.50;99.90
20858;DHT22;10589;53.636;10.012;2022-08-30T05:43:37;15.60;99.90
20858;DHT22;10589;53.636;10.012;2022-08-30T05:46:05;15.60;99.90
20858;DHT22;10589;53.636;10.012;2022-08-30T05:48:32;15.70;99.90
20858;DHT22;10589;53.636;10.012;2022-08-30T05:51:05;15.80;99.90
20858;DHT22;10589;53.636;10.012;2022-08-30T05:53:31;15.90;99.90
20858;DHT22;10589;53.636;10.012;2022-08-30T05:55:56;16.00;99.90
20858;DHT22;10589;53.636;10.012;2022-08-30T05:58:22;16.00;99.90
20858;DHT22;10589;53.636;10.012;2022-08-30T06:00:48;16.10;99.90
20858;DHT22;10589;53.636;10.012;2022-08-30T06:03:14;16.10;99.90
20858;DHT22;10589;53.636;10.012;2022-08-30T06:05:39;16.20;99.90
20858;DHT22;10589;53.636;10.012;2022-08-30T06:08:05;16.20;99.90
20858;DHT22;10589;53.636;10.012;2022-08-30T06:10:30;16.30;99.90
20858;DHT22;10589;53.636;10.012;2022-08-30T06:12:56;16.40;99.90
20858;DHT22;10589;53.636;10.012;2022-08-30T06:15:22;16.50;99.90
20858;DHT22;10589;53.636;10.012;2022-08-30T06:17:47;16.60;99.90
20858;DHT22;10589;53.636;10.012;2022-08-30T06:20:13;16.70;99.90
20858;DHT22;10589;53.636;10.012;2022-08-30T06:22:39;16.70;99.90
20858;DHT22;10589;53.636;10.012;2022-08-30T06:25:05;16.80;99.90
20858;DHT22;10589;53.636;10.012;2022-08-30T06:27:31;16.90;99.90
20858;DHT22;10589;53.636;10.012;2022-08-30T06:29:58;17.10;99.90
20858;DHT22;10589;53.636;10.012;2022-08-30T06:32:23;17.10;99.90
20858;DHT22;10589;53.636;10.012;2022-08-30T06:34:49;17.20;99.90
20858;DHT22;10589;53.636;10.012;2022-08-30T06:37:15;17.30;99.90
20858;DHT22;10589;53.636;10.012;2022-08-30T06:39:40;17.30;99.90
20858;DHT22;10589;53.636;10.012;2022-08-30T06:42:06;17.30;99.90
20858;DHT22;10589;53.636;10.012;2022-08-30T06:44:32;17.40;99.90
20858;DHT22;10589;53.636;10.012;2022-08-30T06:46:57;17.50;99.90
20858;DHT22;10589;53.636;10.012;2022-08-30T06:49:23;17.60;99.90
20858;DHT22;10589;53.636;10.012;2022-08-30T06:51:49;17.70;99.90
20858;DHT22;10589;53.636;10.012;2022-08-30T06:54:16;17.70;99.90
20858;DHT22;10589;53.636;10.012;2022-08-30T06:56:41;17.80;99.90
20858;DHT22;10589;53.636;10.012;2022-08-30T06:59:07;17.90;99.90
20858;DHT22;10589;53.636;10.012;2022-08-30T07:01:32;18.00;99.90
20858;DHT22;10589;53.636;10.012;2022-08-30T07:03:58;17.90;99.90
20858;DHT22;10589;53.636;10.012;2022-08-30T07:06:26;18.00;99.90
20858;DHT22;10589;53.636;10.012;2022-08-30T07:08:53;18.00;99.90
20858;DHT22;10589;53.636;10.012;2022-08-30T07:11:30;18.00;99.90
20858;DHT22;10589;53.636;10.012;2022-08-30T07:13:57;18.00;99.90
20858;DHT22;10589;53.636;10.012;2022-08-30T07:16:23;18.00;99.90
20858;DHT22;10589;53.636;10.012;2022-08-30T07:18:49;18.10;99.90
20858;DHT22;10589;53.636;10.012;2022-08-30T07:21:17;18.10;99.90
20858;DHT22;10589;53.636;10.012;2022-08-30T07:23:44;18.20;99.90
20858;DHT22;10589;53.636;10.012;2022-08-30T07:26:13;18.20;99.90
20858;DHT22;10589;53.636;10.012;2022-08-30T07:28:42;18.10;99.90
20858;DHT22;10589;53.636;10.012;2022-08-30T07:31:09;18.20;99.90
20858;DHT22;10589;53.636;10.012;2022-08-30T07:33:35;18.40;99.90
20858;DHT22;10589;53.636;10.012;2022-08-30T07:36:01;18.40;99.90
20858;DHT22;10589;53.636;10.012;2022-08-30T07:38:29;18.50;99.90
20858;DHT22;10589;53.636;10.012;2022-08-30T07:40:55;18.40;99.90
20858;DHT22;10589;53.636;10.012;2022-08-30T07:43:28;18.50;99.90
20858;DHT22;10589;53.636;10.012;2022-08-30T07:45:54;18.60;99.90
20858;DHT22;10589;53.636;10.012;2022-08-30T07:48:22;18.70;99.90
20858;DHT22;10589;53.636;10.012;2022-08-30T07:50:48;18.90;99.90
20858;DHT22;10589;53.636;10.012;2022-08-30T07:53:13;18.90;99.90
20858;DHT22;10589;53.636;10.012;2022-08-30T07:55:39;19.00;99.90
20858;DHT22;10589;53.636;10.012;2022-08-30T07:58:05;18.90;99.90
20858;DHT22;10589;53.636;10.012;2022-08-30T08:00:30;18.90;99.90
20858;DHT22;10589;53.636;10.012;2022-08-30T08:02:56;18.90;99.90
20858;DHT22;10589;53.636;10.012;2022-08-30T08:05:22;18.90;99.90
20858;DHT22;10589;53.636;10.012;2022-08-30T08:07:47;18.90;99.90
20858;DHT22;10589;53.636;10.012;2022-08-30T08:10:13;18.90;99.90
20858;DHT22;10589;53.636;10.012;2022-08-30T08:12:40;19.00;99.90
20858;DHT22;10589;53.636;10.012;2022-08-30T08:15:06;19.10;99.90
20858;DHT22;10589;53.636;10.012;2022-08-30T08:17:32;19.20;99.90
20858;DHT22;10589;53.636;10.012;2022-08-30T08:19:57;19.40;99.90
20858;DHT22;10589;53.636;10.012;2022-08-30T08:22:23;19.50;99.90
20858;DHT22;10589;53.636;10.012;2022-08-30T08:24:49;19.60;99.90
20858;DHT22;10589;53.636;10.012;2022-08-30T08:27:14;19.60;99.90
20858;DHT22;10589;53.636;10.012;2022-08-30T08:29:40;19.60;99.90
20858;DHT22;10589;53.636;10.012;2022-08-30T08:32:06;19.90;99.90
20858;DHT22;10589;53.636;10.012;2022-08-30T08:34:33;20.00;99.90
20858;DHT22;10589;53.636;10.012;2022-08-30T08:36:58;19.90;99.90
20858;DHT22;10589;53.636;10.012;2022-08-30T08:39:24;19.90;99.90
20858;DHT22;10589;53.636;10.012;2022-08-30T08:44:42;19.80;99.90
20858;DHT22;10589;53.636;10.012;2022-08-30T08:47:12;20.00;99.90
20858;DHT22;10589;53.636;10.012;2022-08-30T08:49:39;20.00;99.90
20858;DHT22;10589;53.636;10.012;2022-08-30T08:52:07;20.20;99.90
20858;DHT22;10589;53.636;10.012;2022-08-30T08:54:59;20.10;99.90
20858;DHT22;10589;53.636;10.012;2022-08-30T08:57:32;20.10;99.90
20858;DHT22;10589;53.636;10.012;2022-08-30T08:59:58;20.00;99.90
20858;DHT22;10589;53.636;10.012;2022-08-30T09:02:26;19.90;99.90
20858;DHT22;10589;53.636;10.012;2022-08-30T09:04:57;19.70;99.90
20858;DHT22;10589;53.636;10.012;2022-08-30T09:07:34;19.60;99.90
20858;DHT22;10589;53.636;10.012;2022-08-30T09:10:00;19.50;99.90
20858;DHT22;10589;53.636;10.012;2022-08-30T09:12:26;19.50;99.90
20858;DHT22;10589;53.636;10.012;2022-08-30T09:15:36;19.60;99.90
20858;DHT22;10589;53.636;10.012;2022-08-30T09:17:52;19.70;99.90
20858;DHT22;10589;53.636;10.012;2022-08-30T09:20:35;20.00;99.90
20858;DHT22;10589;53.636;10.012;2022-08-30T09:28:28;20.50;99.90
20858;DHT22;10589;53.636;10.012;2022-08-30T09:33:22;20.90;99.90
20858;DHT22;10589;53.636;10.012;2022-08-30T09:35:50;21.10;99.90
20858;DHT22;10589;53.636;10.012;2022-08-30T09:38:29;21.00;99.90
20858;DHT22;10589;53.636;10.012;2022-08-30T09:40:57;21.00;99.90
20858;DHT22;10589;53.636;10.012;2022-08-30T09:43:33;21.30;99.90
20858;DHT22;10589;53.636;10.012;2022-08-30T09:48:43;21.60;99.90
20858;DHT22;10589;53.636;10.012;2022-08-30T09:51:24;21.60;99.90
20858;DHT22;10589;53.636;10.012;2022-08-30T09:56:42;21.50;99.90
20858;DHT22;10589;53.636;10.012;2022-08-30T10:01:46;21.50;99.90
20858;DHT22;10589;53.636;10.012;2022-08-30T10:06:53;21.90;99.90
20858;DHT22;10589;53.636;10.012;2022-08-30T10:09:35;21.70;99.90
20858;DHT22;10589;53.636;10.012;2022-08-30T10:15:16;21.60;99.90
20858;DHT22;10589;53.636;10.012;2022-08-30T10:18:01;21.60;99.90
20858;DHT22;10589;53.636;10.012;2022-08-30T10:20:38;21.80;99.90
20858;DHT22;10589;53.636;10.012;2022-08-30T10:25:47;21.90;99.90
20858;DHT22;10589;53.636;10.012;2022-08-30T10:28:41;22.00;99.90
20858;DHT22;10589;53.636;10.012;2022-08-30T10:31:10;22.00;99.90
20858;DHT22;10589;53.636;10.012;2022-08-30T10:33:41;22.00;99.90
20858;DHT22;10589;53.636;10.012;2022-08-30T10:36:12;21.90;99.90
20858;DHT22;10589;53.636;10.012;2022-08-30T10:38:41;21.70;99.90
20858;DHT22;10589;53.636;10.012;2022-08-30T10:44:54;22.00;99.90
20858;DHT22;10589;53.636;10.012;2022-08-30T10:47:01;22.00;99.90
20858;DHT22;10589;53.636;10.012;2022-08-30T10:49:38;21.60;99.90
20858;DHT22;10589;53.636;10.012;2022-08-30T10:54:50;21.00;99.90
20858;DHT22;10589;53.636;10.012;2022-08-30T10:57:17;20.90;99.90
20858;DHT22;10589;53.636;10.012;2022-08-30T11:00:00;20.70;99.90
20858;DHT22;10589;53.636;10.012;2022-08-30T11:05:43;20.50;99.90
20858;DHT22;10589;53.636;10.012;2022-08-30T11:13:12;20.70;99.90
20858;DHT22;10589;53.636;10.012;2022-08-30T11:16:03;20.80;99.90
20858;DHT22;10589;53.636;10.012;2022-08-30T11:18:42;21.10;99.90
20858;DHT22;10589;53.636;10.012;2022-08-30T11:21:40;21.20;99.90
20858;DHT22;10589;53.636;10.012;2022-08-30T11:24:20;21.10;99.90
20858;DHT22;10589;53.636;10.012;2022-08-30T11:29:37;21.20;99.90
20858;DHT22;10589;53.636;10.012;2022-08-30T11:39:57;22.30;99.90
20858;DHT22;10589;53.636;10.012;2022-08-30T11:44:49;22.10;99.90
20858;DHT22;10589;53.636;10.012;2022-08-30T11:47:37;22.00;99.90
20858;DHT22;10589;53.636;10.012;2022-08-30T11:58:51;22.00;99.90
20858;DHT22;10589;53.636;10.012;2022-08-30T12:12:46;22.30;99.90
20858;DHT22;10589;53.636;10.012;2022-08-30T12:15:04;22.40;99.90
20858;DHT22;10589;53.636;10.012;2022-08-30T12:17:47;22.60;99.90
20858;DHT22;10589;53.636;10.012;2022-08-30T12:20:55;22.70;99.90
20858;DHT22;10589;53.636;10.012;2022-08-30T12:23:33;22.80;99.90
20858;DHT22;10589;53.636;10.012;2022-08-30T12:26:17;23.10;99.90
20858;DHT22;10589;53.636;10.012;2022-08-30T12:28:44;23.20;99.90
20858;DHT22;10589;53.636;10.012;2022-08-30T12:31:23;23.10;99.90
20858;DHT22;10589;53.636;10.012;2022-08-30T12:33:53;22.70;99.90
20858;DHT22;10589;53.636;10.012;2022-08-30T12:36:48;22.60;99.90
20858;DHT22;10589;53.636;10.012;2022-08-30T12:39:35;22.80;99.90
20858;DHT22;10589;53.636;10.012;2022-08-30T12:42:24;23.10;99.90
20858;DHT22;10589;53.636;10.012;2022-08-30T12:44:53;23.50;99.90
20858;DHT22;10589;53.636;10.012;2022-08-30T12:47:34;23.90;99.90
20858;DHT22;10589;53.636;10.012;2022-08-30T12:50:03;23.40;99.90
20858;DHT22;10589;53.636;10.012;2022-08-30T12:52:34;23.50;99.90
20858;DHT22;10589;53.636;10.012;2022-08-30T12:55:23;23.50;99.90
20858;DHT22;10589;53.636;10.012;2022-08-30T12:58:05;23.20;99.90
20858;DHT22;10589;53.636;10.012;2022-08-30T13:00:35;22.80;99.90
20858;DHT22;10589;53.636;10.012;2022-08-30T13:05:49;22.30;99.90
20858;DHT22;10589;53.636;10.012;2022-08-30T13:08:47;22.40;99.90
20858;DHT22;10589;53.636;10.012;2022-08-30T13:14:18;22.20;99.90
20858;DHT22;10589;53.636;10.012;2022-08-30T13:16:42;22.10;99.90
20858;DHT22;10589;53.636;10.012;2022-08-30T13:19:32;22.00;99.90
20858;DHT22;10589;53.636;10.012;2022-08-30T13:21:59;23.00;99.90
20858;DHT22;10589;53.636;10.012;2022-08-30T13:24:26;25.10;99.90
20858;DHT22;10589;53.636;10.012;2022-08-30T13:27:00;25.90;99.90
20858;DHT22;10589;53.636;10.012;2022-08-30T13:29:27;24.70;99.90
20858;DHT22;10589;53.636;10.012;2022-08-30T13:31:54;25.30;99.90
20858;DHT22;10589;53.636;10.012;2022-08-30T13:34:19;26.70;99.90
20858;DHT22;10589;53.636;10.012;2022-08-30T13:36:55;27.30;99.90
20858;DHT22;10589;53.636;10.012;2022-08-30T13:39:21;27.80;99.50
20858;DHT22;10589;53.636;10.012;2022-08-30T13:41:47;27.00;98.70
20858;DHT22;10589;53.636;10.012;2022-08-30T13:44:13;27.70;98.10
20858;DHT22;10589;53.636;10.012;2022-08-30T13:46:41;28.50;96.60
20858;DHT22;10589;53.636;10.012;2022-08-30T13:49:14;29.40;96.90
20858;DHT22;10589;53.636;10.012;2022-08-30T13:51:40;29.40;94.30
20858;DHT22;10589;53.636;10.012;2022-08-30T13:54:05;29.40;93.30
20858;DHT22;10589;53.636;10.012;2022-08-30T13:56:31;30.50;93.00
20858;DHT22;10589;53.636;10.012;2022-08-30T13:59:01;31.00;91.40
20858;DHT22;10589;53.636;10.012;2022-08-30T14:01:27;31.00;90.50
20858;DHT22;10589;53.636;10.012;2022-08-30T14:03:53;30.10;90.50
20858;DHT22;10589;53.636;10.012;2022-08-30T14:06:19;30.00;90.80
20858;DHT22;10589;53.636;10.012;2022-08-30T14:08:44;30.40;90.00
20858;DHT22;10589;53.636;10.012;2022-08-30T14:11:11;29.80;89.70
20858;DHT22;10589;53.636;10.012;2022-08-30T14:13:40;29.90;89.40
20858;DHT22;10589;53.636;10.012;2022-08-30T14:16:08;30.20;87.70
20858;DHT22;10589;53.636;10.012;2022-08-30T14:18:34;30.40;88.80
20858;DHT22;10589;53.636;10.012;2022-08-30T14:20:59;30.50;87.80
20858;DHT22;10589;53.636;10.012;2022-08-30T14:23:25;31.60;88.50
20858;DHT22;10589;53.636;10.012;2022-08-30T14:25:52;32.20;84.10
20858;DHT22;10589;53.636;10.012;2022-08-30T14:28:19;31.70;84.10
20858;DHT22;10589;53.636;10.012;2022-08-30T14:30:45;31.80;83.40
20858;DHT22;10589;53.636;10.012;2022-08-30T14:33:11;30.50;84.00
20858;DHT22;10589;53.636;10.012;2022-08-30T14:35:37;29.10;86.20
20858;DHT22;10589;53.636;10.012;2022-08-30T14:38:03;27.70;88.80
20858;DHT22;10589;53.636;10.012;2022-08-30T14:40:29;26.30;90.50
20858;DHT22;10589;53.636;10.012;2022-08-30T14:42:55;24.80;92.80
20858;DHT22;10589;53.636;10.012;2022-08-30T14:45:21;24.20;93.60
20858;DHT22;10589;53.636;10.012;2022-08-30T14:47:47;23.40;95.30
20858;DHT22;10589;53.636;10.012;2022-08-30T14:50:13;23.00;95.60
20858;DHT22;10589;53.636;10.012;2022-08-30T14:52:39;22.70;97.00
20858;DHT22;10589;53.636;10.012;2022-08-30T14:55:09;22.40;97.50
20858;DHT22;10589;53.636;10.012;2022-08-30T14:57:35;22.40;97.30
20858;DHT22;10589;53.636;10.012;2022-08-30T15:00:01;23.20;96.60
20858;DHT22;10589;53.636;10.012;2022-08-30T15:02:26;24.00;95.20
20858;DHT22;10589;53.636;10.012;2022-08-30T15:04:52;24.50;95.30
20858;DHT22;10589;53.636;10.012;2022-08-30T15:07:18;24.80;94.00
20858;DHT22;10589;53.636;10.012;2022-08-30T15:09:43;24.80;94.40
20858;DHT22;10589;53.636;10.012;2022-08-30T15:12:09;24.90;94.30
20858;DHT22;10589;53.636;10.012;2022-08-30T15:14:35;24.50;94.00
20858;DHT22;10589;53.636;10.012;2022-08-30T15:17:01;23.80;95.00
20858;DHT22;10589;53.636;10.012;2022-08-30T15:19:30;23.40;95.70
20858;DHT22;10589;53.636;10.012;2022-08-30T15:21:59;23.00;96.60
20858;DHT22;10589;53.636;10.012;2022-08-30T15:24:25;22.80;96.70
20858;DHT22;10589;53.636;10.012;2022-08-30T15:26:51;22.60;96.80
20858;DHT22;10589;53.636;10.012;2022-08-30T15:29:18;22.60;97.00
20858;DHT22;10589;53.636;10.012;2022-08-30T15:31:46;22.80;96.90
20858;DHT22;10589;53.636;10.012;2022-08-30T15:34:14;23.10;96.80
20858;DHT22;10589;53.636;10.012;2022-08-30T15:36:41;23.20;96.40
20858;DHT22;10589;53.636;10.012;2022-08-30T15:39:08;23.40;96.10
20858;DHT22;10589;53.636;10.012;2022-08-30T15:41:34;23.50;96.10
20858;DHT22;10589;53.636;10.012;2022-08-30T15:44:01;23.60;96.10
20858;DHT22;10589;53.636;10.012;2022-08-30T15:46:32;23.40;95.80
20858;DHT22;10589;53.636;10.012;2022-08-30T15:49:14;23.20;96.70
20858;DHT22;10589;53.636;10.012;2022-08-30T15:51:41;23.70;96.30
20858;DHT22;10589;53.636;10.012;2022-08-30T15:54:09;24.70;94.80
20858;DHT22;10589;53.636;10.012;2022-08-30T15:56:36;25.60;94.20
20858;DHT22;10589;53.636;10.012;2022-08-30T15:59:01;25.80;93.10
20858;DHT22;10589;53.636;10.012;2022-08-30T16:01:27;25.90;92.60
20858;DHT22;10589;53.636;10.012;2022-08-30T16:03:53;26.00;92.60
20858;DHT22;10589;53.636;10.012;2022-08-30T16:06:22;26.10;92.30
20858;DHT22;10589;53.636;10.012;2022-08-30T16:08:49;26.10;91.40
20858;DHT22;10589;53.636;10.012;2022-08-30T16:11:17;25.50;91.60
20858;DHT22;10589;53.636;10.012;2022-08-30T16:13:44;25.10;91.90
20858;DHT22;10589;53.636;10.012;2022-08-30T16:16:11;25.30;90.40
20858;DHT22;10589;53.636;10.012;2022-08-30T16:18:37;25.50;89.80
20858;DHT22;10589;53.636;10.012;2022-08-30T16:21:13;26.00;87.70
20858;DHT22;10589;53.636;10.012;2022-08-30T16:23:40;26.50;86.10
20858;DHT22;10589;53.636;10.012;2022-08-30T16:26:08;26.50;85.10
20858;DHT22;10589;53.636;10.012;2022-08-30T16:28:34;26.80;83.50
20858;DHT22;10589;53.636;10.012;2022-08-30T16:31:01;26.70;82.80
20858;DHT22;10589;53.636;10.012;2022-08-30T16:33:28;26.50;84.20
20858;DHT22;10589;53.636;10.012;2022-08-30T16:35:55;26.20;82.80
20858;DHT22;10589;53.636;10.012;2022-08-30T16:38:22;26.10;83.40
20858;DHT22;10589;53.636;10.012;2022-08-30T16:40:48;26.40;83.50
20858;DHT22;10589;53.636;10.012;2022-08-30T16:43:15;26.90;82.90
20858;DHT22;10589;53.636;10.012;2022-08-30T16:45:41;26.90;83.20
20858;DHT22;10589;53.636;10.012;2022-08-30T16:48:07;27.80;81.00
20858;DHT22;10589;53.636;10.012;2022-08-30T16:50:38;27.90;81.50
20858;DHT22;10589;53.636;10.012;2022-08-30T16:53:04;27.60;80.00
20858;DHT22;10589;53.636;10.012;2022-08-30T16:55:31;27.30;78.90
20858;DHT22;10589;53.636;10.012;2022-08-30T16:58:01;27.00;77.70
20858;DHT22;10589;53.636;10.012;2022-08-30T17:00:26;25.80;78.40
20858;DHT22;10589;53.636;10.012;2022-08-30T17:02:53;24.40;79.40
20858;DHT22;10589;53.636;10.012;2022-08-30T17:05:20;23.20;81.80
20858;DHT22;10589;53.636;10.012;2022-08-30T17:07:46;22.20;84.00
20858;DHT22;10589;53.636;10.012;2022-08-30T17:10:11;21.40;86.20
20858;DHT22;10589;53.636;10.012;2022-08-30T17:12:37;20.90;88.00
20858;DHT22;10589;53.636;10.012;2022-08-30T17:15:04;20.40;88.80
20858;DHT22;10589;53.636;10.012;2022-08-30T17:17:29;20.10;89.90
20858;DHT22;10589;53.636;10.012;2022-08-30T17:19:55;19.80;90.30
20858;DHT22;10589;53.636;10.012;2022-08-30T17:22:20;19.60;91.20
20858;DHT22;10589;53.636;10.012;2022-08-30T17:24:46;19.30;91.20
20858;DHT22;10589;53.636;10.012;2022-08-30T17:27:12;19.10;91.90
20858;DHT22;10589;53.636;10.012;2022-08-30T17:29:37;19.00;92.20
20858;DHT22;10589;53.636;10.012;2022-08-30T17:32:03;18.90;92.40
20858;DHT22;10589;53.636;10.012;2022-08-30T17:34:29;18.70;92.90
20858;DHT22;10589;53.636;10.012;2022-08-30T17:36:55;18.60;93.10
20858;DHT22;10589;53.636;10.012;2022-08-30T17:39:22;18.50;93.20
20858;DHT22;10589;53.636;10.012;2022-08-30T17:41:48;18.40;93.70
20858;DHT22;10589;53.636;10.012;2022-08-30T17:44:14;18.20;93.40
20858;DHT22;10589;53.636;10.012;2022-08-30T17:46:39;18.10;93.50
20858;DHT22;10589;53.636;10.012;2022-08-30T17:49:05;18.10;93.90
20858;DHT22;10589;53.636;10.012;2022-08-30T17:51:31;18.00;94.00
20858;DHT22;10589;53.636;10.012;2022-08-30T17:53:58;17.90;94.40
20858;DHT22;10589;53.636;10.012;2022-08-30T17:56:24;17.80;94.60
20858;DHT22;10589;53.636;10.012;2022-08-30T17:58:52;17.80;94.60
20858;DHT22;10589;53.636;10.012;2022-08-30T18:01:18;17.70;94.80
20858;DHT22;10589;53.636;10.012;2022-08-30T18:03:44;17.60;95.00
20858;DHT22;10589;53.636;10.012;2022-08-30T18:06:10;17.50;95.20
20858;DHT22;10589;53.636;10.012;2022-08-30T18:08:36;17.40;95.10
20858;DHT22;10589;53.636;10.012;2022-08-30T18:11:03;17.40;95.60
20858;DHT22;10589;53.636;10.012;2022-08-30T18:13:29;17.30;95.80
20858;DHT22;10589;53.636;10.012;2022-08-30T18:15:55;17.10;96.40
20858;DHT22;10589;53.636;10.012;2022-08-30T18:18:20;17.00;96.50
20858;DHT22;10589;53.636;10.012;2022-08-30T18:20:46;16.90;96.20
20858;DHT22;10589;53.636;10.012;2022-08-30T18:23:12;16.80;96.80
20858;DHT22;10589;53.636;10.012;2022-08-30T18:25:38;16.70;96.90
20858;DHT22;10589;53.636;10.012;2022-08-30T18:28:05;16.60;97.40
20858;DHT22;10589;53.636;10.012;2022-08-30T18:30:32;16.50;97.70
20858;DHT22;10589;53.636;10.012;2022-08-30T18:32:57;16.40;98.20
20858;DHT22;10589;53.636;10.012;2022-08-30T18:35:23;16.40;99.00
20858;DHT22;10589;53.636;10.012;2022-08-30T18:37:50;16.20;99.40
20858;DHT22;10589;53.636;10.012;2022-08-30T18:40:16;16.20;99.90
20858;DHT22;10589;53.636;10.012;2022-08-30T18:42:43;16.10;99.90
20858;DHT22;10589;53.636;10.012;2022-08-30T18:45:09;16.10;99.90
20858;DHT22;10589;53.636;10.012;2022-08-30T18:47:34;16.10;99.90
20858;DHT22;10589;53.636;10.012;2022-08-30T18:50:03;16.00;99.90
20858;DHT22;10589;53.636;10.012;2022-08-30T18:52:29;15.90;99.90
20858;DHT22;10589;53.636;10.012;2022-08-30T18:54:54;15.80;99.90
20858;DHT22;10589;53.636;10.012;2022-08-30T18:57:20;15.80;99.90
20858;DHT22;10589;53.636;10.012;2022-08-30T18:59:46;15.80;99.90
20858;DHT22;10589;53.636;10.012;2022-08-30T19:02:14;15.70;99.90
20858;DHT22;10589;53.636;10.012;2022-08-30T19:04:42;15.60;99.90
20858;DHT22;10589;53.636;10.012;2022-08-30T19:07:10;15.50;99.90
20858;DHT22;10589;53.636;10.012;2022-08-30T19:09:36;15.50;99.90
20858;DHT22;10589;53.636;10.012;2022-08-30T19:12:03;15.40;99.90
20858;DHT22;10589;53.636;10.012;2022-08-30T19:14:29;15.40;99.90
20858;DHT22;10589;53.636;10.012;2022-08-30T19:16:55;15.30;99.90
20858;DHT22;10589;53.636;10.012;2022-08-30T19:19:21;15.30;99.90
20858;DHT22;10589;53.636;10.012;2022-08-30T19:21:48;15.30;99.90
20858;DHT22;10589;53.636;10.012;2022-08-30T19:24:14;15.20;99.90
20858;DHT22;10589;53.636;10.012;2022-08-30T19:26:39;15.10;99.90
20858;DHT22;10589;53.636;10.012;2022-08-30T19:29:07;15.00;99.90
20858;DHT22;10589;53.636;10.012;2022-08-30T19:31:32;14.90;99.90
20858;DHT22;10589;53.636;10.012;2022-08-30T19:33:58;14.90;99.90
20858;DHT22;10589;53.636;10.012;2022-08-30T19:36:24;14.80;99.90
20858;DHT22;10589;53.636;10.012;2022-08-30T19:38:50;14.70;99.90
20858;DHT22;10589;53.636;10.012;2022-08-30T19:41:15;14.60;99.90
20858;DHT22;10589;53.636;10.012;2022-08-30T19:43:41;14.70;99.90
20858;DHT22;10589;53.636;10.012;2022-08-30T19:46:07;14.60;99.90
20858;DHT22;10589;53.636;10.012;2022-08-30T19:48:33;14.60;99.90
20858;DHT22;10589;53.636;10.012;2022-08-30T19:51:05;14.60;99.90
20858;DHT22;10589;53.636;10.012;2022-08-30T19:53:31;14.50;99.90
20858;DHT22;10589;53.636;10.012;2022-08-30T19:55:56;14.50;99.90
20858;DHT22;10589;53.636;10.012;2022-08-30T19:58:22;14.40;99.90
20858;DHT22;10589;53.636;10.012;2022-08-30T20:00:48;14.30;99.90
20858;DHT22;10589;53.636;10.012;2022-08-30T20:03:14;14.30;99.90
20858;DHT22;10589;53.636;10.012;2022-08-30T20:05:40;14.30;99.90
20858;DHT22;10589;53.636;10.012;2022-08-30T20:08:06;14.20;99.90
20858;DHT22;10589;53.636;10.012;2022-08-30T20:10:32;14.20;99.90
20858;DHT22;10589;53.636;10.012;2022-08-30T20:12:58;14.20;99.90
20858;DHT22;10589;53.636;10.012;2022-08-30T20:15:24;14.20;99.90
20858;DHT22;10589;53.636;10.012;2022-08-30T20:17:50;14.10;99.90
20858;DHT22;10589;53.636;10.012;2022-08-30T20:20:18;14.10;99.90
20858;DHT22;10589;53.636;10.012;2022-08-30T20:22:44;14.00;99.90
20858;DHT22;10589;53.636;10.012;2022-08-30T20:25:09;14.00;99.90
20858;DHT22;10589;53.636;10.012;2022-08-30T20:27:36;13.90;99.90